sensor_id;sensor_type;location;lat;lon;timestamp;P1;durP1;ratioP1;P2;durP2;ratioP2
146;SDS011;45999;48.808;9.182;2023-04-25T00:02:02;1.90;;;1.17;;
146;SDS011;45999;48.808;9.182;2023-04-25T00:04:28;1.30;;;1.20;;
146;SDS011;45999;48.808;9.182;2023-04-25T00:06:54;1.30;;;0.97;;
146;SDS011;45999;48.808;9.182;2023-04-25T00:09:21;2.80;;;1.20;;
146;SDS011;45999;48.808;9.182;2023-04-25T00:11:48;1.07;;;0.97;;
146;SDS011;45999;48.808;9.182;2023-04-25T00:14:14;0.83;;;0.83;;
146;SDS011;45999;48.808;9.182;2023-04-25T00:16:41;2.10;;;1.03;;
146;SDS011;45999;48.808;9.182;2023-04-25T00:19:09;1.20;;;1.07;;
146;SDS011;45999;48.808;9.182;2023-04-25T00:21:35;1.97;;;1.00;;
146;SDS011;45999;48.808;9.182;2023-04-25T00:24:02;1.00;;;1.00;;
146;SDS011;45999;48.808;9.182;2023-04-25T00:26:29;0.90;;;0.90;;
146;SDS011;45999;48.808;9.182;2023-04-25T00:28:55;1.00;;;1.00;;
146;SDS011;45999;48.808;9.182;2023-04-25T00:31:22;1.40;;;0.90;;
146;SDS011;45999;48.808;9.182;2023-04-25T00:33:48;0.90;;;0.90;;
146;SDS011;45999;48.808;9.182;2023-04-25T00:36:14;1.03;;;0.90;;
146;SDS011;45999;48.808;9.182;2023-04-25T00:38:42;1.33;;;0.87;;
146;SDS011;45999;48.808;9.182;2023-04-25T00:41:08;0.77;;;0.77;;
146;SDS011;45999;48.808;9.182;2023-04-25T00:43:35;1.60;;;1.00;;
146;SDS011;45999;48.808;9.182;2023-04-25T00:46:02;1.33;;;1.10;;
146;SDS011;45999;48.808;9.182;2023-04-25T00:48:28;2.40;;;1.33;;
146;SDS011;45999;48.808;9.182;2023-04-25T00:50:56;1.17;;;1.10;;
146;SDS011;45999;48.808;9.182;2023-04-25T00:53:24;1.57;;;1.20;;
146;SDS011;45999;48.808;9.182;2023-04-25T00:55:50;1.47;;;1.00;;
146;SDS011;45999;48.808;9.182;2023-04-25T00:58:17;1.17;;;1.10;;
146;SDS011;45999;48.808;9.182;2023-04-25T01:00:45;1.00;;;1.00;;
146;SDS011;45999;48.808;9.182;2023-04-25T01:03:11;2.10;;;1.27;;
146;SDS011;45999;48.808;9.182;2023-04-25T01:05:38;1.00;;;0.90;;
146;SDS011;45999;48.808;9.182;2023-04-25T01:08:05;2.50;;;1.20;;
146;SDS011;45999;48.808;9.182;2023-04-25T01:10:31;1.40;;;1.30;;
146;SDS011;45999;48.808;9.182;2023-04-25T01:12:57;1.07;;;1.03;;
146;SDS011;45999;48.808;9.182;2023-04-25T01:15:24;1.30;;;1.20;;
146;SDS011;45999;48.808;9.182;2023-04-25T01:17:50;4.13;;;1.30;;
146;SDS011;45999;48.808;9.182;2023-04-25T01:20:18;1.33;;;1.00;;
146;SDS011;45999;48.808;9.182;2023-04-25T01:22:47;2.57;;;1.30;;
146;SDS011;45999;48.808;9.182;2023-04-25T01:25:13;1.73;;;1.40;;
146;SDS011;45999;48.808;9.182;2023-04-25T01:27:40;2.23;;;1.50;;
146;SDS011;45999;48.808;9.182;2023-04-25T01:30:06;2.13;;;1.10;;
146;SDS011;45999;48.808;9.182;2023-04-25T01:32:33;2.80;;;1.50;;
146;SDS011;45999;48.808;9.182;2023-04-25T01:35:04;2.07;;;1.40;;
146;SDS011;45999;48.808;9.182;2023-04-25T01:37:34;1.83;;;1.20;;
146;SDS011;45999;48.808;9.182;2023-04-25T01:40:00;1.30;;;1.20;;
146;SDS011;45999;48.808;9.182;2023-04-25T01:42:26;2.80;;;1.30;;
146;SDS011;45999;48.808;9.182;2023-04-25T01:44:53;1.40;;;1.23;;
146;SDS011;45999;48.808;9.182;2023-04-25T01:47:19;1.17;;;1.10;;
146;SDS011;45999;48.808;9.182;2023-04-25T01:49:45;1.90;;;1.43;;
146;SDS011;45999;48.808;9.182;2023-04-25T01:52:12;2.87;;;1.50;;
146;SDS011;45999;48.808;9.182;2023-04-25T01:54:38;1.70;;;1.50;;
146;SDS011;45999;48.808;9.182;2023-04-25T01:57:08;1.50;;;1.30;;
146;SDS011;45999;48.808;9.182;2023-04-25T01:59:35;1.87;;;1.57;;
146;SDS011;45999;48.808;9.182;2023-04-25T02:02:01;1.97;;;1.23;;
146;SDS011;45999;48.808;9.182;2023-04-25T02:04:31;2.77;;;1.60;;
146;SDS011;45999;48.808;9.182;2023-04-25T02:06:58;1.80;;;1.33;;
146;SDS011;45999;48.808;9.182;2023-04-25T02:09:24;1.80;;;1.57;;
146;SDS011;45999;48.808;9.182;2023-04-25T02:11:50;2.37;;;1.50;;
146;SDS011;45999;48.808;9.182;2023-04-25T02:14:17;1.50;;;1.40;;
146;SDS011;45999;48.808;9.182;2023-04-25T02:16:43;4.13;;;1.53;;
146;SDS011;45999;48.808;9.182;2023-04-25T02:19:10;2.77;;;1.43;;
146;SDS011;45999;48.808;9.182;2023-04-25T02:21:36;1.60;;;1.50;;
146;SDS011;45999;48.808;9.182;2023-04-25T02:24:02;2.07;;;1.40;;
146;SDS011;45999;48.808;9.182;2023-04-25T02:26:29;1.73;;;1.40;;
146;SDS011;45999;48.808;9.182;2023-04-25T02:28:56;2.17;;;1.37;;
146;SDS011;45999;48.808;9.182;2023-04-25T02:31:22;3.47;;;1.67;;
146;SDS011;45999;48.808;9.182;2023-04-25T02:33:48;1.43;;;1.30;;
146;SDS011;45999;48.808;9.182;2023-04-25T02:36:15;1.80;;;1.50;;
146;SDS011;45999;48.808;9.182;2023-04-25T02:38:41;2.43;;;1.50;;
146;SDS011;45999;48.808;9.182;2023-04-25T02:41:07;1.40;;;1.30;;
146;SDS011;45999;48.808;9.182;2023-04-25T02:43:33;2.20;;;1.70;;
146;SDS011;45999;48.808;9.182;2023-04-25T02:46:00;3.73;;;1.53;;
146;SDS011;45999;48.808;9.182;2023-04-25T02:48:26;1.40;;;1.30;;
146;SDS011;45999;48.808;9.182;2023-04-25T02:50:53;1.67;;;1.50;;
146;SDS011;45999;48.808;9.182;2023-04-25T02:53:19;1.60;;;1.50;;
146;SDS011;45999;48.808;9.182;2023-04-25T02:55:45;2.37;;;1.43;;
146;SDS011;45999;48.808;9.182;2023-04-25T02:58:12;2.40;;;1.43;;
146;SDS011;45999;48.808;9.182;2023-04-25T03:00:38;2.83;;;1.47;;
146;SDS011;45999;48.808;9.182;2023-04-25T03:03:04;2.27;;;1.60;;
146;SDS011;45999;48.808;9.182;2023-04-25T03:05:31;2.70;;;1.63;;
146;SDS011;45999;48.808;9.182;2023-04-25T03:07:57;2.30;;;1.37;;
146;SDS011;45999;48.808;9.182;2023-04-25T03:10:23;2.40;;;1.70;;
146;SDS011;45999;48.808;9.182;2023-04-25T03:12:50;1.67;;;1.57;;
146;SDS011;45999;48.808;9.182;2023-04-25T03:15:16;1.80;;;1.33;;
146;SDS011;45999;48.808;9.182;2023-04-25T03:17:42;1.63;;;1.37;;
146;SDS011;45999;48.808;9.182;2023-04-25T03:20:09;3.00;;;1.67;;
146;SDS011;45999;48.808;9.182;2023-04-25T03:22:35;2.63;;;1.40;;
146;SDS011;45999;48.808;9.182;2023-04-25T03:25:02;2.07;;;1.77;;
146;SDS011;45999;48.808;9.182;2023-04-25T03:27:28;1.70;;;1.40;;
146;SDS011;45999;48.808;9.182;2023-04-25T03:29:55;2.20;;;1.60;;
146;SDS011;45999;48.808;9.182;2023-04-25T03:32:21;1.60;;;1.50;;
146;SDS011;45999;48.808;9.182;2023-04-25T03:34:47;1.67;;;1.33;;
146;SDS011;45999;48.808;9.182;2023-04-25T03:37:13;3.43;;;1.60;;
146;SDS011;45999;48.808;9.182;2023-04-25T03:39:40;1.70;;;1.60;;
146;SDS011;45999;48.808;9.182;2023-04-25T03:42:06;1.57;;;1.47;;
146;SDS011;45999;48.808;9.182;2023-04-25T03:44:32;2.80;;;1.70;;
146;SDS011;45999;48.808;9.182;2023-04-25T03:46:58;3.70;;;1.70;;
146;SDS011;45999;48.808;9.182;2023-04-25T03:49:25;2.43;;;1.47;;
146;SDS011;45999;48.808;9.182;2023-04-25T03:51:51;2.20;;;1.60;;
146;SDS011;45999;48.808;9.182;2023-04-25T03:54:17;2.67;;;1.50;;
146;SDS011;45999;48.808;9.182;2023-04-25T03:56:43;2.00;;;1.77;;
146;SDS011;45999;48.808;9.182;2023-04-25T03:59:10;2.60;;;1.40;;
146;SDS011;45999;48.808;9.182;2023-04-25T04:01:36;3.50;;;1.77;;
146;SDS011;45999;48.808;9.182;2023-04-25T04:04:02;2.17;;;1.70;;
146;SDS011;45999;48.808;9.182;2023-04-25T04:06:29;3.07;;;1.80;;
146;SDS011;45999;48.808;9.182;2023-04-25T04:08:55;1.80;;;1.50;;
146;SDS011;45999;48.808;9.182;2023-04-25T04:11:21;3.27;;;1.67;;
146;SDS011;45999;48.808;9.182;2023-04-25T04:13:48;2.67;;;2.00;;
146;SDS011;45999;48.808;9.182;2023-04-25T04:16:14;4.60;;;1.53;;
146;SDS011;45999;48.808;9.182;2023-04-25T04:18:40;2.73;;;1.70;;
146;SDS011;45999;48.808;9.182;2023-04-25T04:21:06;2.83;;;1.60;;
146;SDS011;45999;48.808;9.182;2023-04-25T04:23:33;2.33;;;1.53;;
146;SDS011;45999;48.808;9.182;2023-04-25T04:25:59;4.43;;;1.70;;
146;SDS011;45999;48.808;9.182;2023-04-25T04:28:25;1.97;;;1.50;;
146;SDS011;45999;48.808;9.182;2023-04-25T04:30:52;2.57;;;1.87;;
146;SDS011;45999;48.808;9.182;2023-04-25T04:33:19;1.87;;;1.63;;
146;SDS011;45999;48.808;9.182;2023-04-25T04:35:45;2.27;;;1.50;;
146;SDS011;45999;48.808;9.182;2023-04-25T04:38:13;2.20;;;1.60;;
146;SDS011;45999;48.808;9.182;2023-04-25T04:40:40;1.67;;;1.57;;
146;SDS011;45999;48.808;9.182;2023-04-25T04:43:08;3.93;;;1.80;;
146;SDS011;45999;48.808;9.182;2023-04-25T04:45:35;3.57;;;1.97;;
146;SDS011;45999;48.808;9.182;2023-04-25T04:48:03;2.17;;;1.90;;
146;SDS011;45999;48.808;9.182;2023-04-25T04:50:30;3.87;;;2.17;;
146;SDS011;45999;48.808;9.182;2023-04-25T04:52:57;2.43;;;1.90;;
146;SDS011;45999;48.808;9.182;2023-04-25T04:55:23;2.70;;;2.00;;
146;SDS011;45999;48.808;9.182;2023-04-25T04:57:50;2.97;;;2.10;;
146;SDS011;45999;48.808;9.182;2023-04-25T05:00:16;2.60;;;2.07;;
146;SDS011;45999;48.808;9.182;2023-04-25T05:02:43;3.80;;;2.10;;
146;SDS011;45999;48.808;9.182;2023-04-25T05:05:09;3.10;;;2.20;;
146;SDS011;45999;48.808;9.182;2023-04-25T05:07:35;3.83;;;2.10;;
146;SDS011;45999;48.808;9.182;2023-04-25T05:10:02;3.90;;;2.43;;
146;SDS011;45999;48.808;9.182;2023-04-25T05:12:28;2.23;;;2.00;;
146;SDS011;45999;48.808;9.182;2023-04-25T05:14:55;3.03;;;2.20;;
146;SDS011;45999;48.808;9.182;2023-04-25T05:17:21;2.93;;;2.20;;
146;SDS011;45999;48.808;9.182;2023-04-25T05:19:47;5.23;;;2.47;;
146;SDS011;45999;48.808;9.182;2023-04-25T05:22:14;2.97;;;2.43;;
146;SDS011;45999;48.808;9.182;2023-04-25T05:24:40;3.77;;;2.30;;
146;SDS011;45999;48.808;9.182;2023-04-25T05:27:06;3.07;;;2.53;;
146;SDS011;45999;48.808;9.182;2023-04-25T05:29:32;6.00;;;2.70;;
146;SDS011;45999;48.808;9.182;2023-04-25T05:31:59;3.20;;;2.67;;
146;SDS011;45999;48.808;9.182;2023-04-25T05:34:25;5.53;;;2.47;;
146;SDS011;45999;48.808;9.182;2023-04-25T05:36:51;4.70;;;2.80;;
146;SDS011;45999;48.808;9.182;2023-04-25T05:39:17;4.90;;;3.30;;
146;SDS011;45999;48.808;9.182;2023-04-25T05:41:44;4.17;;;3.00;;
146;SDS011;45999;48.808;9.182;2023-04-25T05:44:10;3.20;;;2.90;;
146;SDS011;45999;48.808;9.182;2023-04-25T05:46:36;3.90;;;2.93;;
146;SDS011;45999;48.808;9.182;2023-04-25T05:49:02;3.10;;;2.80;;
146;SDS011;45999;48.808;9.182;2023-04-25T05:51:28;3.00;;;2.70;;
146;SDS011;45999;48.808;9.182;2023-04-25T05:53:56;3.03;;;2.50;;
146;SDS011;45999;48.808;9.182;2023-04-25T05:56:22;4.07;;;2.80;;
146;SDS011;45999;48.808;9.182;2023-04-25T05:58:48;3.80;;;2.90;;
146;SDS011;45999;48.808;9.182;2023-04-25T06:01:14;4.50;;;3.13;;
146;SDS011;45999;48.808;9.182;2023-04-25T06:03:41;4.77;;;2.40;;
146;SDS011;45999;48.808;9.182;2023-04-25T06:06:08;2.97;;;2.37;;
146;SDS011;45999;48.808;9.182;2023-04-25T06:08:34;2.77;;;2.40;;
146;SDS011;45999;48.808;9.182;2023-04-25T06:11:01;4.77;;;2.80;;
146;SDS011;45999;48.808;9.182;2023-04-25T06:13:27;4.63;;;3.17;;
146;SDS011;45999;48.808;9.182;2023-04-25T06:15:53;3.10;;;2.80;;
146;SDS011;45999;48.808;9.182;2023-04-25T06:18:19;3.00;;;2.70;;
146;SDS011;45999;48.808;9.182;2023-04-25T06:20:46;4.77;;;3.00;;
146;SDS011;45999;48.808;9.182;2023-04-25T06:23:12;3.17;;;2.50;;
146;SDS011;45999;48.808;9.182;2023-04-25T06:25:38;3.57;;;2.47;;
146;SDS011;45999;48.808;9.182;2023-04-25T06:28:04;3.83;;;2.50;;
146;SDS011;45999;48.808;9.182;2023-04-25T06:30:31;3.17;;;2.30;;
146;SDS011;45999;48.808;9.182;2023-04-25T06:32:57;2.57;;;2.27;;
146;SDS011;45999;48.808;9.182;2023-04-25T06:35:23;3.20;;;2.50;;
146;SDS011;45999;48.808;9.182;2023-04-25T06:37:49;2.73;;;2.53;;
146;SDS011;45999;48.808;9.182;2023-04-25T06:40:16;2.73;;;2.53;;
146;SDS011;45999;48.808;9.182;2023-04-25T06:42:42;3.03;;;2.60;;
146;SDS011;45999;48.808;9.182;2023-04-25T06:45:08;3.47;;;2.83;;
146;SDS011;45999;48.808;9.182;2023-04-25T06:47:35;6.03;;;2.77;;
146;SDS011;45999;48.808;9.182;2023-04-25T06:50:01;3.93;;;2.50;;
146;SDS011;45999;48.808;9.182;2023-04-25T06:52:27;3.67;;;2.63;;
146;SDS011;45999;48.808;9.182;2023-04-25T06:54:53;4.60;;;2.80;;
146;SDS011;45999;48.808;9.182;2023-04-25T06:57:20;3.53;;;3.13;;
146;SDS011;45999;48.808;9.182;2023-04-25T06:59:46;5.03;;;3.00;;
146;SDS011;45999;48.808;9.182;2023-04-25T07:02:12;3.10;;;2.60;;
146;SDS011;45999;48.808;9.182;2023-04-25T07:04:38;2.80;;;2.50;;
146;SDS011;45999;48.808;9.182;2023-04-25T07:07:05;2.93;;;2.73;;
146;SDS011;45999;48.808;9.182;2023-04-25T07:09:31;3.17;;;2.97;;
146;SDS011;45999;48.808;9.182;2023-04-25T07:11:58;3.23;;;2.83;;
146;SDS011;45999;48.808;9.182;2023-04-25T07:14:26;4.13;;;3.30;;
146;SDS011;45999;48.808;9.182;2023-04-25T07:16:52;3.63;;;3.33;;
146;SDS011;45999;48.808;9.182;2023-04-25T07:19:20;3.47;;;3.17;;
146;SDS011;45999;48.808;9.182;2023-04-25T07:21:46;3.60;;;3.30;;
146;SDS011;45999;48.808;9.182;2023-04-25T07:24:13;4.70;;;3.33;;
146;SDS011;45999;48.808;9.182;2023-04-25T07:26:39;5.67;;;3.63;;
146;SDS011;45999;48.808;9.182;2023-04-25T07:29:05;3.20;;;2.93;;
146;SDS011;45999;48.808;9.182;2023-04-25T07:31:31;3.40;;;3.10;;
146;SDS011;45999;48.808;9.182;2023-04-25T07:33:58;3.50;;;3.27;;
146;SDS011;45999;48.808;9.182;2023-04-25T07:36:24;3.47;;;3.17;;
146;SDS011;45999;48.808;9.182;2023-04-25T07:38:51;3.63;;;3.33;;
146;SDS011;45999;48.808;9.182;2023-04-25T07:41:17;3.50;;;3.20;;
146;SDS011;45999;48.808;9.182;2023-04-25T07:43:43;4.27;;;3.00;;
146;SDS011;45999;48.808;9.182;2023-04-25T07:46:10;4.70;;;3.50;;
146;SDS011;45999;48.808;9.182;2023-04-25T07:48:36;6.23;;;3.83;;
146;SDS011;45999;48.808;9.182;2023-04-25T07:51:02;4.03;;;3.63;;
146;SDS011;45999;48.808;9.182;2023-04-25T07:53:30;4.80;;;3.73;;
146;SDS011;45999;48.808;9.182;2023-04-25T07:55:56;6.73;;;3.90;;
146;SDS011;45999;48.808;9.182;2023-04-25T07:58:23;4.27;;;3.87;;
146;SDS011;45999;48.808;9.182;2023-04-25T08:00:49;4.80;;;4.10;;
146;SDS011;45999;48.808;9.182;2023-04-25T08:03:15;5.67;;;3.77;;
146;SDS011;45999;48.808;9.182;2023-04-25T08:05:42;3.87;;;3.50;;
146;SDS011;45999;48.808;9.182;2023-04-25T08:08:08;4.97;;;4.13;;
146;SDS011;45999;48.808;9.182;2023-04-25T08:10:34;6.07;;;4.10;;
146;SDS011;45999;48.808;9.182;2023-04-25T08:13:00;4.10;;;3.80;;
146;SDS011;45999;48.808;9.182;2023-04-25T08:15:27;4.20;;;3.70;;
146;SDS011;45999;48.808;9.182;2023-04-25T08:17:53;3.70;;;3.40;;
146;SDS011;45999;48.808;9.182;2023-04-25T08:20:20;3.20;;;3.00;;
146;SDS011;45999;48.808;9.182;2023-04-25T08:22:46;3.60;;;3.30;;
146;SDS011;45999;48.808;9.182;2023-04-25T08:25:13;4.00;;;3.17;;
146;SDS011;45999;48.808;9.182;2023-04-25T08:27:39;3.87;;;3.23;;
146;SDS011;45999;48.808;9.182;2023-04-25T08:30:06;3.73;;;3.43;;
146;SDS011;45999;48.808;9.182;2023-04-25T08:32:33;3.83;;;3.37;;
146;SDS011;45999;48.808;9.182;2023-04-25T08:35:02;3.50;;;3.20;;
146;SDS011;45999;48.808;9.182;2023-04-25T08:37:29;4.00;;;3.67;;
146;SDS011;45999;48.808;9.182;2023-04-25T08:39:55;4.53;;;3.17;;
146;SDS011;45999;48.808;9.182;2023-04-25T08:42:21;4.00;;;3.50;;
146;SDS011;45999;48.808;9.182;2023-04-25T08:44:49;3.87;;;3.47;;
146;SDS011;45999;48.808;9.182;2023-04-25T08:47:15;3.70;;;3.40;;
146;SDS011;45999;48.808;9.182;2023-04-25T08:49:45;5.30;;;3.93;;
146;SDS011;45999;48.808;9.182;2023-04-25T08:52:11;4.00;;;3.60;;
146;SDS011;45999;48.808;9.182;2023-04-25T08:54:41;4.00;;;3.60;;
146;SDS011;45999;48.808;9.182;2023-04-25T08:57:08;5.07;;;3.50;;
146;SDS011;45999;48.808;9.182;2023-04-25T08:59:34;8.20;;;3.90;;
146;SDS011;45999;48.808;9.182;2023-04-25T09:02:02;5.20;;;3.73;;
146;SDS011;45999;48.808;9.182;2023-04-25T09:04:31;8.17;;;4.27;;
146;SDS011;45999;48.808;9.182;2023-04-25T09:06:58;4.47;;;3.83;;
146;SDS011;45999;48.808;9.182;2023-04-25T09:09:24;5.87;;;3.80;;
146;SDS011;45999;48.808;9.182;2023-04-25T09:11:50;3.00;;;2.70;;
146;SDS011;45999;48.808;9.182;2023-04-25T09:14:20;5.20;;;3.67;;
146;SDS011;45999;48.808;9.182;2023-04-25T09:19:22;4.10;;;3.43;;
146;SDS011;45999;48.808;9.182;2023-04-25T09:21:50;3.87;;;3.50;;
146;SDS011;45999;48.808;9.182;2023-04-25T09:24:19;5.33;;;4.07;;
146;SDS011;45999;48.808;9.182;2023-04-25T09:26:45;4.40;;;3.60;;
146;SDS011;45999;48.808;9.182;2023-04-25T09:29:12;3.60;;;3.30;;
146;SDS011;45999;48.808;9.182;2023-04-25T09:31:38;3.30;;;3.10;;
146;SDS011;45999;48.808;9.182;2023-04-25T09:34:05;4.80;;;3.77;;
146;SDS011;45999;48.808;9.182;2023-04-25T09:36:31;3.80;;;3.37;;
146;SDS011;45999;48.808;9.182;2023-04-25T09:38:57;4.90;;;3.57;;
146;SDS011;45999;48.808;9.182;2023-04-25T09:41:25;4.10;;;3.70;;
146;SDS011;45999;48.808;9.182;2023-04-25T09:43:51;3.50;;;3.20;;
146;SDS011;45999;48.808;9.182;2023-04-25T09:46:18;4.23;;;3.50;;
146;SDS011;45999;48.808;9.182;2023-04-25T09:48:49;4.47;;;4.07;;
146;SDS011;45999;48.808;9.182;2023-04-25T09:51:16;4.90;;;4.50;;
146;SDS011;45999;48.808;9.182;2023-04-25T09:53:43;3.63;;;3.30;;
146;SDS011;45999;48.808;9.182;2023-04-25T09:56:11;4.00;;;3.70;;
146;SDS011;45999;48.808;9.182;2023-04-25T09:58:39;3.40;;;3.20;;
146;SDS011;45999;48.808;9.182;2023-04-25T10:01:06;4.27;;;3.00;;
146;SDS011;45999;48.808;9.182;2023-04-25T10:03:34;4.00;;;3.50;;
146;SDS011;45999;48.808;9.182;2023-04-25T10:06:01;6.00;;;4.77;;
146;SDS011;45999;48.808;9.182;2023-04-25T10:08:31;5.03;;;4.53;;
146;SDS011;45999;48.808;9.182;2023-04-25T10:11:01;4.87;;;4.23;;
146;SDS011;45999;48.808;9.182;2023-04-25T10:13:28;6.13;;;4.97;;
146;SDS011;45999;48.808;9.182;2023-04-25T10:15:56;5.70;;;4.90;;
146;SDS011;45999;48.808;9.182;2023-04-25T10:18:23;6.50;;;5.00;;
146;SDS011;45999;48.808;9.182;2023-04-25T10:20:50;6.53;;;3.90;;
146;SDS011;45999;48.808;9.182;2023-04-25T10:23:16;2.90;;;2.53;;
146;SDS011;45999;48.808;9.182;2023-04-25T10:25:43;3.30;;;2.13;;
146;SDS011;45999;48.808;9.182;2023-04-25T10:28:09;4.83;;;2.40;;
146;SDS011;45999;48.808;9.182;2023-04-25T10:30:35;3.40;;;3.10;;
146;SDS011;45999;48.808;9.182;2023-04-25T10:33:02;3.27;;;3.00;;
146;SDS011;45999;48.808;9.182;2023-04-25T10:35:42;3.43;;;3.13;;
146;SDS011;45999;48.808;9.182;2023-04-25T10:38:11;4.40;;;2.97;;
146;SDS011;45999;48.808;9.182;2023-04-25T10:40:40;3.17;;;2.60;;
146;SDS011;45999;48.808;9.182;2023-04-25T10:45:51;7.43;;;4.30;;
146;SDS011;45999;48.808;9.182;2023-04-25T10:48:27;5.03;;;4.20;;
146;SDS011;45999;48.808;9.182;2023-04-25T10:51:09;6.27;;;5.00;;
146;SDS011;45999;48.808;9.182;2023-04-25T10:53:36;5.37;;;4.87;;
146;SDS011;45999;48.808;9.182;2023-04-25T10:56:09;4.47;;;4.07;;
146;SDS011;45999;48.808;9.182;2023-04-25T10:58:35;3.60;;;3.13;;
146;SDS011;45999;48.808;9.182;2023-04-25T11:01:02;3.30;;;3.00;;
146;SDS011;45999;48.808;9.182;2023-04-25T11:03:28;3.57;;;3.07;;
146;SDS011;45999;48.808;9.182;2023-04-25T11:05:55;3.90;;;3.20;;
146;SDS011;45999;48.808;9.182;2023-04-25T11:08:24;3.37;;;3.07;;
146;SDS011;45999;48.808;9.182;2023-04-25T11:10:55;3.10;;;2.80;;
146;SDS011;45999;48.808;9.182;2023-04-25T11:13:21;3.33;;;3.03;;
146;SDS011;45999;48.808;9.182;2023-04-25T11:15:51;5.03;;;3.10;;
146;SDS011;45999;48.808;9.182;2023-04-25T11:18:17;3.67;;;3.33;;
146;SDS011;45999;48.808;9.182;2023-04-25T11:20:43;4.10;;;3.80;;
146;SDS011;45999;48.808;9.182;2023-04-25T11:23:10;6.03;;;4.27;;
146;SDS011;45999;48.808;9.182;2023-04-25T11:25:36;5.70;;;4.13;;
146;SDS011;45999;48.808;9.182;2023-04-25T11:28:02;4.67;;;4.27;;
146;SDS011;45999;48.808;9.182;2023-04-25T11:30:29;3.43;;;2.93;;
146;SDS011;45999;48.808;9.182;2023-04-25T11:32:56;3.03;;;2.37;;
146;SDS011;45999;48.808;9.182;2023-04-25T11:35:22;5.50;;;3.20;;
146;SDS011;45999;48.808;9.182;2023-04-25T11:37:50;2.83;;;2.60;;
146;SDS011;45999;48.808;9.182;2023-04-25T11:40:17;2.70;;;2.50;;
146;SDS011;45999;48.808;9.182;2023-04-25T11:42:43;1.83;;;1.73;;
146;SDS011;45999;48.808;9.182;2023-04-25T11:45:10;1.70;;;1.60;;
146;SDS011;45999;48.808;9.182;2023-04-25T11:47:37;3.17;;;2.50;;
146;SDS011;45999;48.808;9.182;2023-04-25T11:50:03;3.00;;;2.57;;
146;SDS011;45999;48.808;9.182;2023-04-25T11:52:36;3.17;;;2.87;;
146;SDS011;45999;48.808;9.182;2023-04-25T11:55:07;3.10;;;2.63;;
146;SDS011;45999;48.808;9.182;2023-04-25T11:57:34;5.50;;;3.23;;
146;SDS011;45999;48.808;9.182;2023-04-25T12:00:10;3.83;;;3.20;;
146;SDS011;45999;48.808;9.182;2023-04-25T12:02:41;4.57;;;3.80;;
146;SDS011;45999;48.808;9.182;2023-04-25T12:05:08;4.17;;;3.30;;
146;SDS011;45999;48.808;9.182;2023-04-25T12:07:35;4.03;;;3.70;;
146;SDS011;45999;48.808;9.182;2023-04-25T12:10:09;3.50;;;3.17;;
146;SDS011;45999;48.808;9.182;2023-04-25T12:12:36;4.70;;;4.30;;
146;SDS011;45999;48.808;9.182;2023-04-25T12:17:35;4.10;;;3.70;;
146;SDS011;45999;48.808;9.182;2023-04-25T12:20:06;6.03;;;4.23;;
146;SDS011;45999;48.808;9.182;2023-04-25T12:22:33;3.80;;;3.50;;
146;SDS011;45999;48.808;9.182;2023-04-25T12:25:01;3.67;;;3.37;;
146;SDS011;45999;48.808;9.182;2023-04-25T12:27:30;4.83;;;4.23;;
146;SDS011;45999;48.808;9.182;2023-04-25T12:29:57;4.93;;;4.30;;
146;SDS011;45999;48.808;9.182;2023-04-25T12:32:23;4.83;;;4.30;;
146;SDS011;45999;48.808;9.182;2023-04-25T12:34:50;5.33;;;4.37;;
146;SDS011;45999;48.808;9.182;2023-04-25T12:37:16;4.50;;;4.10;;
146;SDS011;45999;48.808;9.182;2023-04-25T12:39:43;4.50;;;4.10;;
146;SDS011;45999;48.808;9.182;2023-04-25T12:42:09;6.20;;;4.73;;
146;SDS011;45999;48.808;9.182;2023-04-25T12:44:36;5.57;;;5.07;;
146;SDS011;45999;48.808;9.182;2023-04-25T12:47:03;6.63;;;4.40;;
146;SDS011;45999;48.808;9.182;2023-04-25T12:49:30;5.27;;;4.60;;
146;SDS011;45999;48.808;9.182;2023-04-25T12:51:56;6.13;;;4.43;;
146;SDS011;45999;48.808;9.182;2023-04-25T12:54:22;5.40;;;4.90;;
146;SDS011;45999;48.808;9.182;2023-04-25T12:56:49;6.77;;;6.17;;
146;SDS011;45999;48.808;9.182;2023-04-25T12:59:16;5.73;;;5.13;;
146;SDS011;45999;48.808;9.182;2023-04-25T13:01:42;5.07;;;4.63;;
146;SDS011;45999;48.808;9.182;2023-04-25T13:04:10;5.97;;;5.07;;
146;SDS011;45999;48.808;9.182;2023-04-25T13:06:36;6.27;;;5.13;;
146;SDS011;45999;48.808;9.182;2023-04-25T13:09:02;6.40;;;5.53;;
146;SDS011;45999;48.808;9.182;2023-04-25T13:11:29;6.70;;;6.10;;
146;SDS011;45999;48.808;9.182;2023-04-25T13:13:56;6.47;;;4.80;;
146;SDS011;45999;48.808;9.182;2023-04-25T13:16:22;9.47;;;5.80;;
146;SDS011;45999;48.808;9.182;2023-04-25T13:18:48;6.57;;;5.83;;
146;SDS011;45999;48.808;9.182;2023-04-25T13:21:18;5.97;;;5.37;;
146;SDS011;45999;48.808;9.182;2023-04-25T13:23:44;6.07;;;5.57;;
146;SDS011;45999;48.808;9.182;2023-04-25T13:26:11;6.83;;;5.63;;
146;SDS011;45999;48.808;9.182;2023-04-25T13:28:37;6.03;;;5.53;;
146;SDS011;45999;48.808;9.182;2023-04-25T13:31:05;6.67;;;5.13;;
146;SDS011;45999;48.808;9.182;2023-04-25T13:33:31;6.43;;;5.73;;
146;SDS011;45999;48.808;9.182;2023-04-25T13:35:57;6.33;;;5.70;;
146;SDS011;45999;48.808;9.182;2023-04-25T13:38:24;7.80;;;6.73;;
146;SDS011;45999;48.808;9.182;2023-04-25T13:40:51;6.90;;;6.07;;
146;SDS011;45999;48.808;9.182;2023-04-25T13:43:21;9.33;;;6.87;;
146;SDS011;45999;48.808;9.182;2023-04-25T13:45:50;9.30;;;7.43;;
146;SDS011;45999;48.808;9.182;2023-04-25T13:48:18;8.77;;;7.93;;
146;SDS011;45999;48.808;9.182;2023-04-25T13:50:44;10.37;;;7.70;;
146;SDS011;45999;48.808;9.182;2023-04-25T13:53:11;12.27;;;8.30;;
146;SDS011;45999;48.808;9.182;2023-04-25T13:55:37;9.23;;;8.27;;
146;SDS011;45999;48.808;9.182;2023-04-25T13:58:03;7.43;;;6.73;;
146;SDS011;45999;48.808;9.182;2023-04-25T14:00:33;9.10;;;8.23;;
146;SDS011;45999;48.808;9.182;2023-04-25T14:02:59;10.83;;;9.03;;
146;SDS011;45999;48.808;9.182;2023-04-25T14:05:25;8.43;;;7.63;;
146;SDS011;45999;48.808;9.182;2023-04-25T14:07:51;8.70;;;6.90;;
146;SDS011;45999;48.808;9.182;2023-04-25T14:10:18;7.80;;;6.97;;
146;SDS011;45999;48.808;9.182;2023-04-25T14:12:44;8.90;;;7.17;;
146;SDS011;45999;48.808;9.182;2023-04-25T14:15:10;8.50;;;6.80;;
146;SDS011;45999;48.808;9.182;2023-04-25T14:17:36;8.80;;;8.00;;
146;SDS011;45999;48.808;9.182;2023-04-25T14:20:03;7.47;;;6.27;;
146;SDS011;45999;48.808;9.182;2023-04-25T14:22:30;7.77;;;5.67;;
146;SDS011;45999;48.808;9.182;2023-04-25T14:24:57;7.30;;;6.33;;
146;SDS011;45999;48.808;9.182;2023-04-25T14:27:23;6.63;;;6.03;;
146;SDS011;45999;48.808;9.182;2023-04-25T14:29:50;7.47;;;5.50;;
146;SDS011;45999;48.808;9.182;2023-04-25T14:32:16;5.77;;;5.27;;
146;SDS011;45999;48.808;9.182;2023-04-25T14:34:42;5.53;;;4.80;;
146;SDS011;45999;48.808;9.182;2023-04-25T14:37:08;5.07;;;4.30;;
146;SDS011;45999;48.808;9.182;2023-04-25T14:39:35;6.10;;;5.50;;
146;SDS011;45999;48.808;9.182;2023-04-25T14:42:01;5.37;;;4.87;;
146;SDS011;45999;48.808;9.182;2023-04-25T14:44:27;6.93;;;4.47;;
146;SDS011;45999;48.808;9.182;2023-04-25T14:46:54;5.43;;;4.90;;
146;SDS011;45999;48.808;9.182;2023-04-25T14:49:20;5.03;;;4.47;;
146;SDS011;45999;48.808;9.182;2023-04-25T14:51:46;6.10;;;4.87;;
146;SDS011;45999;48.808;9.182;2023-04-25T14:54:12;5.57;;;4.80;;
146;SDS011;45999;48.808;9.182;2023-04-25T14:56:39;5.87;;;5.27;;
146;SDS011;45999;48.808;9.182;2023-04-25T14:59:05;5.87;;;5.27;;
146;SDS011;45999;48.808;9.182;2023-04-25T15:01:31;5.87;;;5.33;;
146;SDS011;45999;48.808;9.182;2023-04-25T15:03:58;7.47;;;5.57;;
146;SDS011;45999;48.808;9.182;2023-04-25T15:06:25;7.37;;;5.47;;
146;SDS011;45999;48.808;9.182;2023-04-25T15:08:52;6.03;;;5.20;;
146;SDS011;45999;48.808;9.182;2023-04-25T15:11:18;7.47;;;6.10;;
146;SDS011;45999;48.808;9.182;2023-04-25T15:13:45;6.97;;;5.10;;
146;SDS011;45999;48.808;9.182;2023-04-25T15:16:11;6.67;;;5.60;;
146;SDS011;45999;48.808;9.182;2023-04-25T15:18:37;9.20;;;5.40;;
146;SDS011;45999;48.808;9.182;2023-04-25T15:21:03;6.10;;;5.40;;